Time;durP1;ratioP1;P1;durP2;ratioP2;P2;SDS_P1;SDS_P2;PMS_P1;PMS_P2;Temp;Humidity;BMP_temperature;BMP_pressure;BME280_temperature;BME280_humidity;BME280_pressure;Samples;Min_cycle;Max_cycle;Signal;HPM_P1;HPM_P2
2023/10/08 00:00:49;;;;;;;0.50;0.30;;;;;;;13.10;63.05;101849.19;5006677;28;99608;-77
2023/10/08 00:03:16;;;;;;;0.53;0.30;;;;;;;13.10;63.23;101835.28;5023387;27;99247;-77
2023/10/08 00:05:42;;;;;;;0.50;0.30;;;;;;;13.12;63.27;101835.53;5020822;27;96930;-77
2023/10/08 00:08:11;;;;;;;0.53;0.33;;;;;;;13.10;63.04;101838.06;5006457;28;97142;-76
2023/10/08 00:10:41;;;;;;;0.60;0.40;;;;;;;13.05;62.92;101852.72;5008939;28;97283;-77
2023/10/08 00:13:08;;;;;;;0.50;0.30;;;;;;;12.94;63.05;101862.53;5006719;28;96762;-76
2023/10/08 00:15:36;;;;;;;1.33;0.40;;;;;;;12.90;63.02;101869.59;5007454;28;97060;-77
2023/10/08 00:18:11;;;;;;;0.80;0.40;;;;;;;12.86;63.28;101866.28;5011241;28;97363;-77
2023/10/08 00:20:47;;;;;;;0.60;0.30;;;;;;;12.85;63.15;101873.88;5006358;28;97382;-77
2023/10/08 00:23:12;;;;;;;0.60;0.30;;;;;;;12.79;63.27;101875.13;5008856;28;99085;-77
2023/10/08 00:25:40;;;;;;;0.87;0.40;;;;;;;12.81;63.25;101870.59;5008679;28;97072;-77
2023/10/08 00:28:10;;;;;;;0.63;0.30;;;;;;;12.82;63.39;101866.53;5003615;28;97229;-77
2023/10/08 00:30:39;;;;;;;0.50;0.30;;;;;;;12.85;63.16;101889.78;5006533;28;99612;-77
2023/10/08 00:33:05;;;;;;;0.50;0.30;;;;;;;12.86;63.14;101914.28;5007878;28;97775;-77
2023/10/08 00:35:30;;;;;;;0.50;0.30;;;;;;;12.87;63.33;101907.47;5008170;28;97173;-77
2023/10/08 00:38:00;;;;;;;0.50;0.30;;;;;;;12.87;63.17;101921.34;4997993;28;97081;-77
2023/10/08 00:40:35;;;;;;;0.60;0.30;;;;;;;12.90;63.20;101923.13;5008602;28;97887;-77
2023/10/08 00:43:03;;;;;;;1.00;0.40;;;;;;;12.89;63.14;101915.28;5005641;28;100032;-77
2023/10/08 00:45:30;;;;;;;0.70;0.40;;;;;;;12.90;63.28;101923.13;5005100;28;97188;-77
2023/10/08 00:47:56;;;;;;;2.30;0.40;;;;;;;12.88;63.11;101928.41;5006943;28;97267;-77
2023/10/08 00:50:30;;;;;;;1.23;0.40;;;;;;;12.92;63.15;101917.81;5005642;28;99503;-77
2023/10/08 00:53:09;;;;;;;0.70;0.30;;;;;;;12.94;63.22;101925.66;5008298;28;97273;-77
2023/10/08 00:55:35;;;;;;;0.53;0.30;;;;;;;12.91;63.21;101907.97;5010153;28;97385;-77
2023/10/08 00:58:09;;;;;;;0.97;0.30;;;;;;;12.95;63.27;101925.16;5009467;28;97247;-78
2023/10/08 01:00:40;;;;;;;0.90;0.40;;;;;;;12.90;63.24;101934.22;5009278;28;101759;-77
2023/10/08 01:03:14;;;;;;;0.70;0.30;;;;;;;12.95;63.21;101943.84;5002701;28;99441;-76
2023/10/08 01:05:46;;;;;;;0.60;0.30;;;;;;;12.92;63.16;101928.19;5005876;28;97293;-77
2023/10/08 01:08:17;;;;;;;0.60;0.40;;;;;;;12.97;63.28;101950.41;5008724;28;97236;-77
2023/10/08 01:10:43;;;;;;;0.93;0.60;;;;;;;12.91;63.27;101957.22;5008912;28;96836;-77
2023/10/08 01:13:15;;;;;;;0.60;0.40;;;;;;;12.92;63.10;101950.41;5008524;28;97085;-77
2023/10/08 01:15:41;;;;;;;1.33;0.40;;;;;;;12.91;63.16;101946.09;4998665;28;97181;-77
2023/10/08 01:18:14;;;;;;;0.60;0.43;;;;;;;12.90;63.24;101950.91;5004793;28;99844;-77
2023/10/08 01:23:10;;;;;;;1.43;0.50;;;;;;;12.93;63.18;101974.13;5008693;28;96687;-77
2023/10/08 01:25:42;;;;;;;0.90;0.47;;;;;;;12.92;63.26;101992.09;5002400;28;97056;-77
2023/10/08 01:28:15;;;;;;;2.93;0.80;;;;;;;12.90;63.14;101989.78;5009414;28;99309;-78
2023/10/08 01:30:42;;;;;;;0.80;0.47;;;;;;;12.89;63.19;101981.97;5009164;28;96840;-77
2023/10/08 01:33:11;;;;;;;0.80;0.40;;;;;;;12.84;63.12;101977.91;5006619;28;96873;-77
2023/10/08 01:35:42;;;;;;;0.80;0.40;;;;;;;12.85;63.27;101976.66;5009652;28;97889;-77
2023/10/08 01:38:13;;;;;;;1.50;0.40;;;;;;;12.85;63.13;101978.66;5002848;28;96980;-76
2023/10/08 01:40:38;;;;;;;0.60;0.40;;;;;;;12.81;63.22;101981.69;5004983;28;97837;-77
2023/10/08 01:43:04;;;;;;;0.70;0.50;;;;;;;12.81;63.16;101984.47;5008537;28;97262;-77
2023/10/08 01:45:31;;;;;;;1.43;0.63;;;;;;;12.80;63.57;101991.28;5006713;28;97461;-77
2023/10/08 01:47:57;;;;;;;0.60;0.40;;;;;;;12.80;63.32;101999.59;5005793;28;97423;-76
2023/10/08 01:50:22;;;;;;;1.13;0.40;;;;;;;12.78;63.39;101960.47;5005028;28;97388;-77
2023/10/08 01:52:51;;;;;;;0.63;0.47;;;;;;;12.80;63.37;101957.94;5002898;28;101302;-76
2023/10/08 01:55:19;;;;;;;1.80;0.60;;;;;;;12.79;63.28;101958.47;5004141;28;97382;-77
2023/10/08 01:57:51;;;;;;;1.17;0.57;;;;;;;12.81;63.37;101956.69;5003896;28;97209;-77
2023/10/08 02:00:19;;;;;;;1.50;0.70;;;;;;;12.80;63.52;101969.06;5003652;28;100497;-77
2023/10/08 02:02:50;;;;;;;6.33;0.60;;;;;;;12.83;63.37;101983.97;5007483;28;97508;-77
2023/10/08 02:05:18;;;;;;;0.83;0.50;;;;;;;12.82;63.41;101993.53;5004797;28;97179;-77
2023/10/08 02:07:44;;;;;;;1.53;0.70;;;;;;;12.80;63.48;101988.50;5006823;28;97217;-77
2023/10/08 02:10:10;;;;;;;2.37;0.70;;;;;;;12.79;63.37;101989.75;5005471;28;97330;-77
2023/10/08 02:12:37;;;;;;;0.70;0.43;;;;;;;12.80;63.50;101990.50;5007598;28;97356;-77
2023/10/08 02:15:03;;;;;;;1.47;0.40;;;;;;;12.78;63.46;101979.91;5005454;28;97201;-77
2023/10/08 02:17:28;;;;;;;0.87;0.60;;;;;;;12.79;63.20;101970.31;5022197;27;97256;-77
2023/10/08 02:19:54;;;;;;;1.53;0.50;;;;;;;12.78;63.38;101966.03;5004449;28;98033;-77
2023/10/08 02:22:19;;;;;;;0.97;0.60;;;;;;;12.76;63.37;101974.09;5007581;28;97871;-77
2023/10/08 02:24:44;;;;;;;0.90;0.80;;;;;;;12.77;63.38;101983.19;5008570;28;97333;-77
2023/10/08 02:27:10;;;;;;;2.00;0.60;;;;;;;12.78;63.50;101979.91;5004132;28;97243;-76
2023/10/08 02:29:35;;;;;;;0.80;0.40;;;;;;;12.78;63.37;101982.69;5002573;28;99264;-76
2023/10/08 02:32:01;;;;;;;1.10;0.60;;;;;;;12.75;63.44;101983.66;5004430;28;102731;-76
2023/10/08 02:34:26;;;;;;;0.90;0.57;;;;;;;12.73;63.36;101963.22;4996108;28;104928;-77
2023/10/08 02:36:52;;;;;;;1.10;0.60;;;;;;;12.71;63.48;101974.81;5008898;28;97359;-77
2023/10/08 02:39:21;;;;;;;0.60;0.40;;;;;;;12.72;63.39;101972.81;5002635;28;97210;-77
2023/10/08 02:41:47;;;;;;;0.70;0.60;;;;;;;12.71;63.51;101963.72;5003963;28;97416;-77
2023/10/08 02:44:14;;;;;;;1.00;0.50;;;;;;;12.71;63.46;101977.59;4999067;28;96836;-77
2023/10/08 02:46:48;;;;;;;0.60;0.40;;;;;;;12.71;63.71;101971.28;5004401;28;97846;-77
2023/10/08 02:49:20;;;;;;;1.07;0.50;;;;;;;12.68;63.57;101984.16;5003716;28;97578;-76
2023/10/08 02:51:50;;;;;;;1.07;0.63;;;;;;;12.69;63.52;101996.00;5008364;28;99386;-77
2023/10/08 02:54:18;;;;;;;2.23;0.50;;;;;;;12.67;63.40;102009.63;5004773;28;97941;-76
2023/10/08 02:56:51;;;;;;;2.63;0.53;;;;;;;12.70;63.53;102014.22;5005687;27;97362;-77
2023/10/08 02:59:16;;;;;;;1.40;0.60;;;;;;;12.68;63.58;102027.84;5005156;28;99538;-77
2023/10/08 03:01:42;;;;;;;1.53;0.53;;;;;;;12.66;63.60;102022.03;5006792;28;97329;-77
2023/10/08 03:04:18;;;;;;;0.90;0.60;;;;;;;12.66;63.67;102014.44;5001978;28;97476;-76
2023/10/08 03:06:50;;;;;;;0.80;0.60;;;;;;;12.65;63.58;102023.28;5006695;28;101016;-77
2023/10/08 03:09:23;;;;;;;1.27;0.57;;;;;;;12.63;63.56;102009.13;5007619;28;97613;-77
2023/10/08 03:11:49;;;;;;;1.40;0.70;;;;;;;12.62;63.37;102025.03;5005462;28;97807;-76
2023/10/08 03:14:21;;;;;;;0.80;0.50;;;;;;;12.58;63.50;102007.84;5006243;27;100488;-76
2023/10/08 03:16:48;;;;;;;1.33;0.70;;;;;;;12.55;63.55;102019.97;5022437;27;97627;-77
2023/10/08 03:19:14;;;;;;;0.80;0.50;;;;;;;12.55;63.58;102039.41;5003627;28;99975;-77
2023/10/08 03:24:12;;;;;;;2.20;0.67;;;;;;;12.56;63.77;102048.47;5006363;28;97583;-77
2023/10/08 03:26:39;;;;;;;1.40;0.60;;;;;;;12.57;63.52;102042.44;5020669;27;97904;-77
2023/10/08 03:29:08;;;;;;;0.80;0.60;;;;;;;12.54;63.48;102051.75;5006594;28;99638;-76
2023/10/08 03:34:15;;;;;;;0.80;0.70;;;;;;;12.53;63.59;102036.31;5002733;28;97399;-77
2023/10/08 03:36:44;;;;;;;0.80;0.60;;;;;;;12.54;63.67;102056.53;5004780;28;96765;-76
2023/10/08 03:39:19;;;;;;;3.37;0.90;;;;;;;12.54;63.80;102060.06;5003633;28;100724;-77
2023/10/08 03:44:29;;;;;;;1.20;0.60;;;;;;;12.52;63.65;102064.59;5005357;28;96968;-77
2023/10/08 03:46:56;;;;;;;2.47;0.73;;;;;;;12.54;63.79;102067.63;5011148;28;97056;-77
2023/10/08 03:51:52;;;;;;;3.63;0.80;;;;;;;12.53;63.72;102039.09;5006357;28;97146;-77
2023/10/08 03:54:35;;;;;;;1.73;0.80;;;;;;;12.50;63.82;102044.91;5005740;28;97014;-77
2023/10/08 03:57:04;;;;;;;0.80;0.80;;;;;;;12.47;63.86;102079.97;5009861;28;97010;-76
2023/10/08 04:01:59;;;;;;;0.93;0.77;;;;;;;12.47;63.78;102077.19;5011100;28;97002;-77
2023/10/08 04:04:31;;;;;;;1.10;0.80;;;;;;;12.43;64.05;102084.97;4997068;28;99953;-76
2023/10/08 04:07:24;;;;;;;1.80;1.20;;;;;;;12.45;63.97;102084.47;5001013;28;97860;-77
2023/10/08 04:09:42;;;;;;;1.17;0.80;;;;;;;12.44;64.04;102107.97;5007595;28;97659;-76
2023/10/08 04:12:11;;;;;;;0.90;0.90;;;;;;;12.46;63.95;102100.66;5008220;28;99236;-76
2023/10/08 04:14:36;;;;;;;1.20;1.10;;;;;;;12.46;63.84;102117.31;5006363;28;97535;-77
2023/10/08 04:17:02;;;;;;;1.43;0.70;;;;;;;12.46;63.87;102108.22;5009506;27;97101;-77
2023/10/08 04:19:29;;;;;;;3.50;0.83;;;;;;;12.46;63.91;102099.88;5005238;28;99173;-76
2023/10/08 04:21:56;;;;;;;1.43;1.20;;;;;;;12.45;63.91;102113.00;5009048;27;97341;-77
2023/10/08 04:24:35;;;;;;;2.03;1.47;;;;;;;12.45;64.01;102096.34;5005690;28;97244;-77
2023/10/08 04:27:09;;;;;;;1.70;1.07;;;;;;;12.43;64.09;102101.63;5006936;28;97209;-76
2023/10/08 04:29:36;;;;;;;1.57;1.40;;;;;;;12.42;64.05;102068.84;5005438;28;97845;-76
2023/10/08 04:32:07;;;;;;;2.73;1.40;;;;;;;12.42;64.04;102080.69;5008655;28;99255;-76
2023/10/08 04:34:34;;;;;;;6.10;1.20;;;;;;;12.43;63.85;102095.31;5006202;28;97318;-77
2023/10/08 04:37:03;;;;;;;1.50;1.17;;;;;;;12.43;63.97;102092.53;5010211;28;96767;-77
2023/10/08 04:39:32;;;;;;;1.40;1.30;;;;;;;12.42;64.07;102110.47;5009879;28;97774;-77
2023/10/08 04:42:10;;;;;;;0.83;0.83;;;;;;;12.39;63.92;102106.66;5007302;27;97066;-77
2023/10/08 04:44:39;;;;;;;1.83;0.90;;;;;;;12.32;63.92;102118.22;5006105;28;96759;-76
2023/10/08 04:47:06;;;;;;;1.27;1.17;;;;;;;12.33;64.04;102124.53;5006223;28;96948;-76
2023/10/08 04:49:33;;;;;;;1.20;1.10;;;;;;;12.34;64.07;102121.25;5004410;28;97463;-77
2023/10/08 04:52:18;;;;;;;1.63;1.47;;;;;;;12.34;64.18;102123.25;5008169;28;99988;-76
2023/10/08 04:55:12;;;;;;;2.10;1.30;;;;;;;12.35;64.14;102120.00;5004954;28;96942;-76
2023/10/08 04:57:34;;;;;;;1.30;1.20;;;;;;;12.34;64.16;102123.25;5009350;28;97335;-77
2023/10/08 05:00:00;;;;;;;1.60;1.50;;;;;;;12.36;64.13;102131.88;5009685;28;97611;-75
2023/10/08 05:02:49;;;;;;;2.53;1.53;;;;;;;12.33;64.28;102124.53;5002856;28;100761;-77
2023/10/08 05:12:38;;;;;;;2.50;1.33;;;;;;;12.30;64.10;102129.03;5010344;28;97472;-77
2023/10/08 05:21:25;;;;;;;1.37;1.27;;;;;;;12.32;64.29;102164.63;5008760;28;97342;-76
2023/10/08 05:28:30;;;;;;;2.00;1.40;;;;;;;12.33;64.19;102163.38;5007960;28;96778;-77
2023/10/08 05:31:21;;;;;;;3.20;1.90;;;;;;;12.31;64.26;102161.09;5023432;27;100632;-76
2023/10/08 05:34:14;;;;;;;1.63;1.43;;;;;;;12.31;64.26;102161.09;5010162;28;97129;-77
2023/10/08 05:41:52;;;;;;;4.17;1.80;;;;;;;12.31;64.31;102169.44;5007915;28;97560;-78
2023/10/08 05:52:13;;;;;;;3.80;1.53;;;;;;;12.31;64.36;102197.19;5004230;28;98074;-76
2023/10/08 05:54:57;;;;;;;1.43;1.33;;;;;;;12.34;64.31;102210.06;5002381;28;97633;-77
2023/10/08 05:57:46;;;;;;;1.80;1.70;;;;;;;12.31;64.44;102199.97;5005400;28;97167;-77
2023/10/08 06:13:04;;;;;;;1.70;1.60;;;;;;;12.35;64.46;102211.59;5003608;28;97584;-78
2023/10/08 06:15:47;;;;;;;1.73;1.60;;;;;;;12.33;64.46;102208.56;5005187;28;97377;-77
2023/10/08 06:18:18;;;;;;;1.93;1.70;;;;;;;12.32;64.33;102201.47;5000599;28;98711;-76
2023/10/08 06:20:43;;;;;;;2.10;1.70;;;;;;;12.37;64.43;102219.44;5005528;28;100749;-77
2023/10/08 06:23:17;;;;;;;2.27;1.60;;;;;;;12.37;64.41;102236.84;5005931;27;98541;-76
2023/10/08 06:25:45;;;;;;;2.17;1.77;;;;;;;12.38;64.50;102243.16;5005688;28;97871;-77
2023/10/08 06:28:21;;;;;;;1.40;1.27;;;;;;;12.39;64.54;102222.47;5007178;28;97283;-77
2023/10/08 06:30:55;;;;;;;2.50;1.73;;;;;;;12.39;64.58;102239.91;5005780;28;97199;-76
2023/10/08 06:33:22;;;;;;;5.80;2.30;;;;;;;12.41;64.50;102240.16;5013064;27;100457;-77
2023/10/08 06:36:02;;;;;;;2.20;2.00;;;;;;;12.42;64.58;102236.16;5002080;28;100971;-77
2023/10/08 06:38:30;;;;;;;1.83;1.60;;;;;;;12.43;64.60;102253.53;5003599;28;97258;-77
2023/10/08 06:40:59;;;;;;;2.50;1.80;;;;;;;12.47;64.62;102284.63;5004330;28;97193;-77
2023/10/08 06:43:26;;;;;;;3.07;1.60;;;;;;;12.50;64.59;102264.97;5006249;28;100388;-76
2023/10/08 06:45:58;;;;;;;2.00;1.77;;;;;;;12.53;64.60;102277.13;5004015;28;98449;-77
2023/10/08 06:48:24;;;;;;;2.27;1.80;;;;;;;12.55;64.47;102272.63;5007731;28;97272;-77
2023/10/08 06:50:51;;;;;;;1.77;1.57;;;;;;;12.58;64.59;102263.28;5003867;28;97604;-77
2023/10/08 06:53:21;;;;;;;3.10;1.50;;;;;;;12.62;64.57;102280.47;5007894;28;97967;-77
2023/10/08 06:55:56;;;;;;;2.37;1.80;;;;;;;12.64;64.72;102283.53;5003974;28;99024;-77
2023/10/08 06:58:25;;;;;;;1.73;1.63;;;;;;;12.69;64.63;102296.72;5005024;28;99623;-77
2023/10/08 07:00:52;;;;;;;2.33;1.90;;;;;;;12.68;64.50;102278.53;4996985;28;96993;-77
2023/10/08 07:03:18;;;;;;;1.70;1.60;;;;;;;12.72;64.53;102273.50;5003482;28;97729;-77
2023/10/08 07:05:54;;;;;;;4.80;1.90;;;;;;;12.73;64.67;102279.81;5003245;28;100179;-77
2023/10/08 07:08:23;;;;;;;2.13;1.93;;;;;;;12.73;64.60;102279.81;5008858;28;97642;-77
2023/10/08 07:10:50;;;;;;;3.27;1.77;;;;;;;12.75;64.51;102283.63;5005924;28;97301;-77
2023/10/08 07:13:17;;;;;;;1.93;1.67;;;;;;;12.76;64.49;102287.16;5003906;28;97339;-77
2023/10/08 07:15:44;;;;;;;2.10;2.00;;;;;;;12.77;64.64;102297.78;5006679;28;97249;-76
2023/10/08 07:18:14;;;;;;;1.70;1.60;;;;;;;12.80;64.62;102296.03;4994736;28;96809;-77
2023/10/08 07:20:45;;;;;;;2.50;1.87;;;;;;;12.82;64.62;102285.97;5003285;28;98388;-77
2023/10/08 07:23:18;;;;;;;1.80;1.63;;;;;;;12.82;64.63;102299.09;5003388;28;100272;-76
2023/10/08 07:25:48;;;;;;;2.13;1.93;;;;;;;12.83;64.63;102279.16;4995596;28;98193;-76
2023/10/08 07:28:14;;;;;;;2.10;1.90;;;;;;;12.87;64.67;102303.94;5004520;27;97129;-78
2023/10/08 07:30:44;;;;;;;1.73;1.63;;;;;;;12.92;64.74;102301.19;4991848;28;98885;-76
2023/10/08 07:33:17;;;;;;;2.57;1.53;;;;;;;12.98;64.64;102310.34;4984360;28;100525;-76
2023/10/08 07:36:04;;;;;;;1.67;1.57;;;;;;;13.02;64.64;102317.72;4990746;28;97784;-76
2023/10/08 07:38:30;;;;;;;3.07;1.77;;;;;;;13.05;64.50;102322.28;5006567;28;96928;-76
2023/10/08 07:40:55;;;;;;;1.90;1.80;;;;;;;13.06;64.65;102324.56;5006577;28;97449;-76
2023/10/08 07:43:21;;;;;;;3.10;1.87;;;;;;;13.09;64.53;102317.28;5002563;28;97798;-76
2023/10/08 07:45:46;;;;;;;2.33;2.00;;;;;;;13.12;64.64;102314.25;5006225;28;98112;-76
2023/10/08 07:48:13;;;;;;;2.33;1.93;;;;;;;13.17;64.65;102316.31;5005446;28;97340;-76
2023/10/08 07:50:46;;;;;;;5.77;1.90;;;;;;;13.24;64.75;102331.78;5005008;28;96960;-77
2023/10/08 07:53:17;;;;;;;3.63;1.80;;;;;;;13.25;64.71;102344.44;5004070;28;97793;-76
2023/10/08 07:55:45;;;;;;;3.93;2.40;;;;;;;13.29;64.67;102331.84;5005853;28;100644;-76
2023/10/08 07:58:11;;;;;;;2.20;2.03;;;;;;;13.30;64.75;102363.16;5007263;28;97570;-76
2023/10/08 08:00:38;;;;;;;4.40;2.20;;;;;;;13.32;64.73;102341.22;5002262;28;97904;-75
2023/10/08 08:03:04;;;;;;;1.50;1.40;;;;;;;13.34;64.66;102338.69;5002650;28;97891;-76
2023/10/08 08:05:30;;;;;;;4.80;1.67;;;;;;;13.32;64.64;102335.66;5006875;28;97705;-76
2023/10/08 08:07:58;;;;;;;3.60;2.10;;;;;;;13.34;64.62;102347.03;5004810;28;97502;-76
2023/10/08 08:10:24;;;;;;;4.10;2.20;;;;;;;13.35;64.76;102340.19;5004582;28;97085;-76
2023/10/08 08:12:51;;;;;;;3.17;2.10;;;;;;;13.40;64.72;102340.25;5003942;28;97850;-76
2023/10/08 08:15:17;;;;;;;5.47;1.60;;;;;;;13.46;64.58;102343.06;5006332;28;97729;-76
2023/10/08 08:17:43;;;;;;;2.00;1.80;;;;;;;13.44;64.50;102337.22;5004905;28;96824;-75
2023/10/08 08:20:18;;;;;;;3.50;1.50;;;;;;;13.46;64.40;102340.28;5005648;28;96786;-76
2023/10/08 08:22:49;;;;;;;3.33;1.50;;;;;;;13.45;64.59;102342.28;5004607;28;97133;-75
2023/10/08 08:25:16;;;;;;;1.70;1.23;;;;;;;13.52;64.55;102349.41;5020249;27;100183;-75
2023/10/08 08:27:48;;;;;;;1.93;1.60;;;;;;;13.53;64.35;102378.75;5005052;28;97781;-76
2023/10/08 08:30:17;;;;;;;7.90;1.60;;;;;;;13.53;64.25;102378.75;5005927;28;97721;-76
2023/10/08 08:32:47;;;;;;;1.83;1.50;;;;;;;13.58;64.46;102372.47;5020753;27;99228;-75
2023/10/08 08:35:16;;;;;;;3.57;1.57;;;;;;;13.61;64.46;102374.25;5008274;28;97113;-75
2023/10/08 08:37:42;;;;;;;2.63;1.80;;;;;;;13.67;64.37;102375.03;5008767;28;97036;-76
2023/10/08 08:40:09;;;;;;;5.33;1.60;;;;;;;13.69;64.24;102378.09;5006637;28;97227;-75
2023/10/08 08:42:35;;;;;;;3.60;1.60;;;;;;;13.70;64.22;102376.84;5007001;28;99785;-76
2023/10/08 08:45:09;;;;;;;3.50;1.57;;;;;;;13.71;64.21;102386.72;5022697;27;99479;-76
2023/10/08 08:47:40;;;;;;;3.30;1.40;;;;;;;13.73;63.97;102386.97;5006941;28;97422;-76
2023/10/08 08:50:08;;;;;;;2.60;1.30;;;;;;;13.67;63.51;102409.19;5006936;27;97486;-76
2023/10/08 08:52:38;;;;;;;3.43;1.23;;;;;;;13.66;63.94;102404.13;5005798;28;98978;-75
2023/10/08 08:55:14;;;;;;;1.67;0.90;;;;;;;13.66;63.80;102396.56;5009881;28;97935;-75
2023/10/08 08:57:43;;;;;;;1.50;1.00;;;;;;;13.69;63.93;102412.22;5015533;27;97957;-75
2023/10/08 09:00:11;;;;;;;1.27;1.13;;;;;;;13.69;64.06;102414.25;5005424;28;97108;-76
2023/10/08 09:02:47;;;;;;;3.23;1.30;;;;;;;13.71;63.98;102406.19;5005253;28;97628;-76
2023/10/08 09:05:25;;;;;;;1.53;1.00;;;;;;;13.65;64.01;102408.16;5003981;28;97023;-75
2023/10/08 09:07:57;;;;;;;3.67;1.43;;;;;;;13.66;64.16;102416.03;5004415;28;97426;-75
2023/10/08 09:10:27;;;;;;;6.43;1.50;;;;;;;13.69;64.08;102422.59;4999184;28;97665;-75
2023/10/08 09:12:53;;;;;;;1.80;1.07;;;;;;;13.72;63.58;102418.81;5000790;28;100229;-75
2023/10/08 09:15:22;;;;;;;2.60;1.10;;;;;;;13.74;63.70;102427.44;5006681;28;98188;-75
2023/10/08 09:17:48;;;;;;;1.17;1.07;;;;;;;13.74;63.52;102425.44;5005212;28;97272;-75
2023/10/08 09:20:13;;;;;;;4.73;1.23;;;;;;;13.78;63.33;102427.97;5020184;27;96834;-75
2023/10/08 09:22:39;;;;;;;1.63;0.97;;;;;;;13.80;63.44;102431.00;5003506;28;99710;-75
2023/10/08 09:25:07;;;;;;;1.37;1.00;;;;;;;13.87;63.59;102430.56;5003723;28;106181;-75
2023/10/08 09:27:33;;;;;;;1.27;1.03;;;;;;;13.94;63.58;102418.19;5003737;28;96855;-75
2023/10/08 09:29:59;;;;;;;3.90;1.00;;;;;;;13.97;63.19;102422.78;5002386;28;97377;-75
2023/10/08 09:32:25;;;;;;;1.97;1.00;;;;;;;13.98;62.80;102422.28;4998590;28;100828;-75
2023/10/08 09:34:52;;;;;;;0.93;0.80;;;;;;;13.97;62.64;102423.56;5001926;28;97584;-75
2023/10/08 09:37:21;;;;;;;2.40;1.00;;;;;;;13.97;62.49;102417.22;5006031;28;97054;-76
2023/10/08 09:39:49;;;;;;;2.40;0.80;;;;;;;14.02;62.71;102422.06;5001764;28;97437;-75
2023/10/08 09:42:14;;;;;;;3.20;1.10;;;;;;;14.05;62.41;102427.41;5005802;28;97049;-76
2023/10/08 09:44:40;;;;;;;1.37;1.10;;;;;;;14.05;61.99;102424.63;5003120;28;97417;-75
2023/10/08 09:47:09;;;;;;;4.23;1.07;;;;;;;14.08;62.18;102415.25;5003520;28;97003;-75
2023/10/08 09:49:43;;;;;;;0.87;0.77;;;;;;;14.12;61.94;102413.03;5000848;28;97076;-75
2023/10/08 09:52:10;;;;;;;2.30;0.87;;;;;;;14.18;61.89;102416.59;5001290;28;97145;-75
2023/10/08 09:54:53;;;;;;;1.90;0.90;;;;;;;14.23;61.13;102412.31;5001171;28;100924;-75
2023/10/08 09:57:19;;;;;;;2.13;0.80;;;;;;;14.27;61.45;102410.06;5004621;28;97350;-76
2023/10/08 09:59:48;;;;;;;4.03;1.03;;;;;;;14.26;61.41;102423.22;5009111;27;98042;-76
2023/10/08 10:02:14;;;;;;;2.07;0.83;;;;;;;14.27;60.48;102418.41;5003662;28;98191;-76
2023/10/08 10:04:44;;;;;;;3.33;1.00;;;;;;;14.34;60.85;102421.47;5018180;27;100825;-76
2023/10/08 10:07:12;;;;;;;2.17;1.20;;;;;;;14.30;60.57;102417.41;4986053;28;98219;-76
2023/10/08 10:09:42;;;;;;;2.07;0.70;;;;;;;14.25;61.08;102435.63;5004532;28;96905;-76
2023/10/08 10:12:11;;;;;;;3.27;0.87;;;;;;;14.21;60.92;102418.38;5003704;27;99725;-76
2023/10/08 10:14:45;;;;;;;1.00;0.67;;;;;;;14.19;60.79;102418.09;5002464;28;98497;-76
2023/10/08 10:17:29;;;;;;;1.97;0.77;;;;;;;14.16;61.39;102423.91;5003426;28;97256;-76
2023/10/08 10:19:55;;;;;;;0.73;0.60;;;;;;;14.22;61.39;102410.78;5003931;28;97465;-75
2023/10/08 10:22:29;;;;;;;3.23;1.10;;;;;;;14.30;60.55;102431.34;5001579;28;97503;-76
2023/10/08 10:24:54;;;;;;;3.20;1.10;;;;;;;14.31;60.59;102430.84;5002430;28;97960;-76
2023/10/08 10:27:21;;;;;;;2.87;0.87;;;;;;;14.27;60.41;102447.00;5006064;28;97796;-76
2023/10/08 10:29:48;;;;;;;8.07;1.40;;;;;;;14.33;60.16;102455.38;5002573;28;97437;-76
2023/10/08 10:32:15;;;;;;;2.50;0.90;;;;;;;14.40;60.11;102447.34;5003819;28;97645;-75
2023/10/08 10:34:43;;;;;;;2.70;1.30;;;;;;;14.53;59.59;102446.88;5003552;28;97245;-76
2023/10/08 10:37:18;;;;;;;4.70;1.30;;;;;;;14.61;59.43;102436.00;5000740;28;97106;-76
2023/10/08 10:39:52;;;;;;;2.03;1.20;;;;;;;14.62;57.73;102435.50;5003825;28;97349;-76
2023/10/08 10:42:21;;;;;;;2.83;0.83;;;;;;;14.65;59.49;102437.28;5002860;28;97904;-76
2023/10/08 10:44:53;;;;;;;1.43;1.10;;;;;;;14.71;59.01;102442.88;4997885;28;98875;-76
2023/10/08 10:52:31;;;;;;;1.80;0.77;;;;;;;14.77;58.19;102452.78;5007560;28;98222;-76
2023/10/08 10:57:43;;;;;;;1.63;0.77;;;;;;;14.61;57.86;102436.75;5008049;28;97241;-76
2023/10/08 11:00:47;;;;;;;1.17;0.80;;;;;;;14.56;57.32;102454.22;5002043;28;96775;-76
2023/10/08 11:03:10;;;;;;;2.83;0.80;;;;;;;14.51;57.60;102435.47;5005209;28;98908;-76
2023/10/08 11:05:47;;;;;;;0.90;0.67;;;;;;;14.55;57.57;102421.28;5022489;27;100680;-76
2023/10/08 11:08:14;;;;;;;1.40;0.80;;;;;;;14.67;57.60;102442.34;5005206;28;97423;-76
2023/10/08 11:10:46;;;;;;;3.47;0.80;;;;;;;14.76;57.10;102436.56;5007208;28;98135;-77
2023/10/08 11:13:14;;;;;;;4.83;1.10;;;;;;;14.95;57.25;102415.34;5007317;28;97096;-76
2023/10/08 11:15:51;;;;;;;1.53;0.70;;;;;;;15.09;55.58;102403.94;5001747;28;99400;-76
2023/10/08 11:18:22;;;;;;;1.37;0.90;;;;;;;15.10;55.73;102399.13;5006412;28;97013;-76
2023/10/08 11:20:54;;;;;;;2.30;0.63;;;;;;;15.16;55.88;102422.19;5001319;28;97952;-76
2023/10/08 11:23:41;;;;;;;4.77;1.20;;;;;;;15.21;52.84;102438.19;5001593;28;99206;-76
2023/10/08 11:26:07;;;;;;;1.73;0.70;;;;;;;15.14;55.25;102449.84;5005053;28;98053;-76
2023/10/08 11:28:34;;;;;;;2.00;0.70;;;;;;;15.21;55.20;102452.13;5006692;28;97848;-76
2023/10/08 11:31:20;;;;;;;1.20;0.83;;;;;;;15.18;52.93;102417.66;5008618;28;97280;-76
2023/10/08 11:33:56;;;;;;;3.67;0.87;;;;;;;15.28;55.23;102375.56;5006907;28;97275;-77
2023/10/08 11:36:27;;;;;;;1.80;0.50;;;;;;;15.29;54.75;102374.28;5001115;28;100524;-76
2023/10/08 11:38:53;;;;;;;1.57;0.93;;;;;;;15.46;54.99;102386.22;5021855;27;97112;-76
2023/10/08 11:41:22;;;;;;;2.80;0.87;;;;;;;15.80;54.14;102429.53;5001197;28;97380;-76
2023/10/08 11:43:53;;;;;;;3.53;0.90;;;;;;;16.16;54.13;102430.50;5006134;28;96812;-76
2023/10/08 11:46:25;;;;;;;1.23;0.87;;;;;;;16.36;53.55;102444.09;5007397;28;97340;-77
2023/10/08 11:48:51;;;;;;;1.20;0.70;;;;;;;16.45;53.23;102452.19;5006377;28;97323;-78
2023/10/08 11:51:17;;;;;;;1.73;0.70;;;;;;;16.58;53.37;102452.38;5008043;28;97541;-77
2023/10/08 11:53:44;;;;;;;2.67;0.90;;;;;;;16.80;52.79;102451.53;5004453;28;100724;-77
2023/10/08 11:56:13;;;;;;;3.00;1.10;;;;;;;16.90;52.53;102436.72;5002343;28;97189;-77
2023/10/08 11:58:44;;;;;;;0.90;0.70;;;;;;;16.97;51.80;102446.59;5001332;28;97096;-76
2023/10/08 12:01:15;;;;;;;3.03;0.70;;;;;;;16.77;51.84;102441.41;5004914;28;97020;-76
2023/10/08 12:03:49;;;;;;;2.10;0.70;;;;;;;16.79;51.94;102433.25;5006010;28;97961;-76
2023/10/08 12:06:18;;;;;;;1.73;1.10;;;;;;;16.98;51.75;102418.13;5021660;27;100737;-77
2023/10/08 12:08:46;;;;;;;3.73;1.17;;;;;;;16.97;51.18;102413.81;5002750;28;97257;-76
2023/10/08 12:11:12;;;;;;;2.00;0.80;;;;;;;16.82;50.79;102404.25;4996267;28;98442;-77
2023/10/08 12:13:43;;;;;;;3.47;1.03;;;;;;;16.61;51.53;102406.66;5005505;27;97895;-77
2023/10/08 12:16:12;;;;;;;0.90;0.80;;;;;;;16.54;51.91;102410.75;4995479;28;98980;-76
2023/10/08 12:18:42;;;;;;;3.07;1.00;;;;;;;16.81;51.80;102414.69;4993520;28;97224;-77
2023/10/08 12:21:11;;;;;;;2.13;0.80;;;;;;;17.14;51.42;102422.84;5007170;28;97751;-77
2023/10/08 12:23:37;;;;;;;1.13;0.83;;;;;;;17.36;50.92;102405.88;5001811;28;100239;-77
2023/10/08 12:26:03;;;;;;;1.73;0.97;;;;;;;17.62;50.52;102410.25;5019140;27;99802;-76
2023/10/08 12:28:29;;;;;;;2.93;0.97;;;;;;;17.87;50.13;102408.97;5004835;28;97492;-77
2023/10/08 12:30:55;;;;;;;1.17;0.90;;;;;;;18.14;50.18;102410.69;5008382;28;96869;-78
2023/10/08 12:33:24;;;;;;;5.60;1.17;;;;;;;18.22;49.01;102402.44;5005403;28;97210;-77
2023/10/08 12:35:53;;;;;;;1.63;0.90;;;;;;;18.00;49.70;102398.63;5019677;27;100255;-79
2023/10/08 12:38:22;;;;;;;5.80;1.03;;;;;;;17.91;49.85;102375.81;5005509;28;97698;-78
2023/10/08 12:40:52;;;;;;;1.63;1.10;;;;;;;17.77;49.57;102382.63;5006187;28;96848;-78
2023/10/08 12:43:20;;;;;;;2.50;0.90;;;;;;;17.72;50.06;102369.41;5002383;28;99292;-77